sensor_id;sensor_type;location;lat;lon;timestamp;P1;durP1;ratioP1;P2;durP2;ratioP2
4698;SDS011;33708;49.466;11.176;2022-12-31T00:01:48;7.07;;;1.20;;
4698;SDS011;33708;49.466;11.176;2022-12-31T00:04:14;6.70;;;1.20;;
4698;SDS011;33708;49.466;11.176;2022-12-31T00:06:39;6.47;;;1.00;;
4698;SDS011;33708;49.466;11.176;2022-12-31T00:09:06;6.43;;;1.03;;
4698;SDS011;33708;49.466;11.176;2022-12-31T00:11:32;9.77;;;1.30;;
4698;SDS011;33708;49.466;11.176;2022-12-31T00:13:59;6.70;;;1.10;;
4698;SDS011;33708;49.466;11.176;2022-12-31T00:16:28;6.30;;;1.00;;
4698;SDS011;33708;49.466;11.176;2022-12-31T00:18:56;6.60;;;1.27;;
4698;SDS011;33708;49.466;11.176;2022-12-31T00:21:23;9.27;;;1.13;;
4698;SDS011;33708;49.466;11.176;2022-12-31T00:23:50;8.83;;;1.17;;
4698;SDS011;33708;49.466;11.176;2022-12-31T00:26:17;11.93;;;1.40;;
4698;SDS011;33708;49.466;11.176;2022-12-31T00:28:45;6.93;;;1.00;;
4698;SDS011;33708;49.466;11.176;2022-12-31T00:33:41;6.60;;;1.13;;
4698;SDS011;33708;49.466;11.176;2022-12-31T00:36:09;8.97;;;1.10;;
4698;SDS011;33708;49.466;11.176;2022-12-31T00:38:37;10.43;;;1.00;;
4698;SDS011;33708;49.466;11.176;2022-12-31T00:41:04;6.27;;;0.90;;
4698;SDS011;33708;49.466;11.176;2022-12-31T00:43:30;6.30;;;0.80;;
4698;SDS011;33708;49.466;11.176;2022-12-31T00:45:56;10.83;;;1.03;;
4698;SDS011;33708;49.466;11.176;2022-12-31T00:48:22;6.30;;;0.80;;
4698;SDS011;33708;49.466;11.176;2022-12-31T00:50:48;6.77;;;0.93;;
4698;SDS011;33708;49.466;11.176;2022-12-31T00:53:13;6.70;;;0.97;;
4698;SDS011;33708;49.466;11.176;2022-12-31T00:55:39;6.80;;;0.80;;
4698;SDS011;33708;49.466;11.176;2022-12-31T00:58:04;7.63;;;1.00;;
4698;SDS011;33708;49.466;11.176;2022-12-31T01:00:30;6.17;;;0.80;;
4698;SDS011;33708;49.466;11.176;2022-12-31T01:02:56;6.70;;;1.00;;
4698;SDS011;33708;49.466;11.176;2022-12-31T01:05:21;6.50;;;1.00;;
4698;SDS011;33708;49.466;11.176;2022-12-31T01:07:47;6.67;;;0.93;;
4698;SDS011;33708;49.466;11.176;2022-12-31T01:10:12;6.20;;;0.90;;
4698;SDS011;33708;49.466;11.176;2022-12-31T01:12:58;8.03;;;0.80;;
4698;SDS011;33708;49.466;11.176;2022-12-31T01:15:24;9.97;;;1.20;;
4698;SDS011;33708;49.466;11.176;2022-12-31T01:17:49;7.30;;;0.80;;
4698;SDS011;33708;49.466;11.176;2022-12-31T01:20:15;7.57;;;0.90;;
4698;SDS011;33708;49.466;11.176;2022-12-31T01:22:41;6.77;;;0.83;;
4698;SDS011;33708;49.466;11.176;2022-12-31T01:25:07;6.70;;;0.80;;
4698;SDS011;33708;49.466;11.176;2022-12-31T01:27:32;6.17;;;0.80;;
4698;SDS011;33708;49.466;11.176;2022-12-31T01:29:58;9.90;;;0.90;;
4698;SDS011;33708;49.466;11.176;2022-12-31T01:32:23;6.73;;;0.90;;
4698;SDS011;33708;49.466;11.176;2022-12-31T01:34:49;6.50;;;0.90;;
4698;SDS011;33708;49.466;11.176;2022-12-31T01:37:15;9.13;;;0.90;;
4698;SDS011;33708;49.466;11.176;2022-12-31T01:39:40;6.30;;;0.80;;
4698;SDS011;33708;49.466;11.176;2022-12-31T01:42:08;6.40;;;0.87;;
4698;SDS011;33708;49.466;11.176;2022-12-31T01:47:02;7.50;;;0.77;;
4698;SDS011;33708;49.466;11.176;2022-12-31T01:52:06;7.50;;;0.97;;
4698;SDS011;33708;49.466;11.176;2022-12-31T01:54:39;6.70;;;0.73;;
4698;SDS011;33708;49.466;11.176;2022-12-31T01:57:09;6.60;;;0.80;;
4698;SDS011;33708;49.466;11.176;2022-12-31T01:59:36;5.93;;;0.57;;
4698;SDS011;33708;49.466;11.176;2022-12-31T02:02:02;6.60;;;0.60;;
4698;SDS011;33708;49.466;11.176;2022-12-31T02:04:28;5.93;;;0.50;;
4698;SDS011;33708;49.466;11.176;2022-12-31T02:07:01;7.20;;;0.80;;
4698;SDS011;33708;49.466;11.176;2022-12-31T02:09:29;6.30;;;0.60;;
4698;SDS011;33708;49.466;11.176;2022-12-31T02:11:55;6.00;;;0.60;;
4698;SDS011;33708;49.466;11.176;2022-12-31T02:14:22;6.70;;;0.67;;
4698;SDS011;33708;49.466;11.176;2022-12-31T02:22:26;6.90;;;0.67;;
4698;SDS011;33708;49.466;11.176;2022-12-31T02:25:08;6.20;;;0.73;;
4698;SDS011;33708;49.466;11.176;2022-12-31T02:27:52;6.17;;;0.70;;
4698;SDS011;33708;49.466;11.176;2022-12-31T02:31:04;7.67;;;0.90;;
4698;SDS011;33708;49.466;11.176;2022-12-31T02:33:43;6.03;;;0.60;;
4698;SDS011;33708;49.466;11.176;2022-12-31T02:36:22;6.40;;;0.60;;
4698;SDS011;33708;49.466;11.176;2022-12-31T02:38:52;9.93;;;0.70;;
4698;SDS011;33708;49.466;11.176;2022-12-31T02:41:21;6.80;;;0.80;;
4698;SDS011;33708;49.466;11.176;2022-12-31T02:52:42;7.37;;;0.70;;
4698;SDS011;33708;49.466;11.176;2022-12-31T02:55:56;11.37;;;0.90;;
4698;SDS011;33708;49.466;11.176;2022-12-31T03:00:31;7.03;;;0.90;;
4698;SDS011;33708;49.466;11.176;2022-12-31T03:03:27;9.10;;;1.07;;
4698;SDS011;33708;49.466;11.176;2022-12-31T03:05:53;8.10;;;0.70;;
4698;SDS011;33708;49.466;11.176;2022-12-31T03:08:22;5.97;;;0.60;;
4698;SDS011;33708;49.466;11.176;2022-12-31T03:10:48;6.10;;;0.70;;
4698;SDS011;33708;49.466;11.176;2022-12-31T03:13:14;6.30;;;0.70;;
4698;SDS011;33708;49.466;11.176;2022-12-31T03:15:40;8.10;;;0.77;;
4698;SDS011;33708;49.466;11.176;2022-12-31T03:20:37;6.17;;;0.60;;
4698;SDS011;33708;49.466;11.176;2022-12-31T03:23:27;6.37;;;0.70;;
4698;SDS011;33708;49.466;11.176;2022-12-31T03:25:57;7.17;;;0.80;;
4698;SDS011;33708;49.466;11.176;2022-12-31T03:28:25;6.90;;;0.70;;
4698;SDS011;33708;49.466;11.176;2022-12-31T03:30:56;6.17;;;0.70;;
4698;SDS011;33708;49.466;11.176;2022-12-31T03:33:23;6.13;;;0.80;;
4698;SDS011;33708;49.466;11.176;2022-12-31T03:35:51;6.03;;;0.60;;
4698;SDS011;33708;49.466;11.176;2022-12-31T03:38:17;6.77;;;0.77;;
4698;SDS011;33708;49.466;11.176;2022-12-31T03:40:46;6.20;;;0.70;;
4698;SDS011;33708;49.466;11.176;2022-12-31T03:43:13;7.43;;;0.90;;
4698;SDS011;33708;49.466;11.176;2022-12-31T03:45:39;6.07;;;0.60;;
4698;SDS011;33708;49.466;11.176;2022-12-31T03:48:06;6.20;;;0.80;;
4698;SDS011;33708;49.466;11.176;2022-12-31T03:50:32;6.23;;;0.70;;
4698;SDS011;33708;49.466;11.176;2022-12-31T03:52:59;6.67;;;0.70;;
4698;SDS011;33708;49.466;11.176;2022-12-31T03:55:25;6.30;;;0.80;;
4698;SDS011;33708;49.466;11.176;2022-12-31T03:57:51;6.50;;;0.70;;
4698;SDS011;33708;49.466;11.176;2022-12-31T04:00:17;7.40;;;0.70;;
4698;SDS011;33708;49.466;11.176;2022-12-31T04:02:45;6.47;;;0.73;;
4698;SDS011;33708;49.466;11.176;2022-12-31T04:05:11;6.53;;;0.60;;
4698;SDS011;33708;49.466;11.176;2022-12-31T04:07:38;6.40;;;0.90;;
4698;SDS011;33708;49.466;11.176;2022-12-31T04:10:04;7.07;;;0.60;;
4698;SDS011;33708;49.466;11.176;2022-12-31T04:12:32;6.03;;;0.60;;
4698;SDS011;33708;49.466;11.176;2022-12-31T04:14:58;6.40;;;0.67;;
4698;SDS011;33708;49.466;11.176;2022-12-31T04:17:24;6.50;;;0.70;;
4698;SDS011;33708;49.466;11.176;2022-12-31T04:19:50;6.47;;;0.87;;
4698;SDS011;33708;49.466;11.176;2022-12-31T04:22:15;6.20;;;0.60;;
4698;SDS011;33708;49.466;11.176;2022-12-31T04:24:41;5.93;;;0.63;;
4698;SDS011;33708;49.466;11.176;2022-12-31T04:27:08;7.17;;;0.70;;
4698;SDS011;33708;49.466;11.176;2022-12-31T04:29:34;6.53;;;0.80;;
4698;SDS011;33708;49.466;11.176;2022-12-31T04:32:00;7.67;;;1.20;;
4698;SDS011;33708;49.466;11.176;2022-12-31T04:34:27;6.70;;;0.83;;
4698;SDS011;33708;49.466;11.176;2022-12-31T04:36:52;7.80;;;0.93;;
4698;SDS011;33708;49.466;11.176;2022-12-31T04:39:18;7.20;;;0.80;;
4698;SDS011;33708;49.466;11.176;2022-12-31T04:41:43;8.80;;;0.80;;
4698;SDS011;33708;49.466;11.176;2022-12-31T04:44:09;6.20;;;0.77;;
4698;SDS011;33708;49.466;11.176;2022-12-31T04:46:34;8.43;;;1.03;;
4698;SDS011;33708;49.466;11.176;2022-12-31T04:49:00;11.20;;;1.03;;
4698;SDS011;33708;49.466;11.176;2022-12-31T04:51:27;6.10;;;0.70;;
4698;SDS011;33708;49.466;11.176;2022-12-31T04:53:53;6.40;;;0.70;;
4698;SDS011;33708;49.466;11.176;2022-12-31T04:56:19;7.37;;;0.90;;
4698;SDS011;33708;49.466;11.176;2022-12-31T04:58:45;6.50;;;0.70;;
4698;SDS011;33708;49.466;11.176;2022-12-31T05:01:11;7.20;;;0.90;;
4698;SDS011;33708;49.466;11.176;2022-12-31T05:03:37;6.03;;;0.70;;
4698;SDS011;33708;49.466;11.176;2022-12-31T05:06:04;6.97;;;1.10;;
4698;SDS011;33708;49.466;11.176;2022-12-31T05:08:32;10.93;;;0.83;;
4698;SDS011;33708;49.466;11.176;2022-12-31T05:10:58;8.83;;;1.27;;
4698;SDS011;33708;49.466;11.176;2022-12-31T05:13:24;7.30;;;0.80;;
4698;SDS011;33708;49.466;11.176;2022-12-31T05:15:50;6.30;;;0.77;;
4698;SDS011;33708;49.466;11.176;2022-12-31T05:18:16;6.70;;;0.70;;
4698;SDS011;33708;49.466;11.176;2022-12-31T05:20:42;6.37;;;0.63;;
4698;SDS011;33708;49.466;11.176;2022-12-31T05:23:07;8.30;;;0.83;;
4698;SDS011;33708;49.466;11.176;2022-12-31T05:25:33;12.43;;;0.87;;
4698;SDS011;33708;49.466;11.176;2022-12-31T05:27:59;6.50;;;0.90;;
4698;SDS011;33708;49.466;11.176;2022-12-31T05:30:25;6.20;;;0.70;;
4698;SDS011;33708;49.466;11.176;2022-12-31T05:32:50;7.20;;;0.60;;
4698;SDS011;33708;49.466;11.176;2022-12-31T05:35:16;6.80;;;0.80;;
4698;SDS011;33708;49.466;11.176;2022-12-31T05:37:41;8.93;;;0.90;;
4698;SDS011;33708;49.466;11.176;2022-12-31T05:40:08;6.60;;;0.90;;
4698;SDS011;33708;49.466;11.176;2022-12-31T05:42:34;7.70;;;0.93;;
4698;SDS011;33708;49.466;11.176;2022-12-31T05:45:00;11.90;;;0.97;;
4698;SDS011;33708;49.466;11.176;2022-12-31T05:47:25;6.63;;;0.93;;
4698;SDS011;33708;49.466;11.176;2022-12-31T05:49:51;6.30;;;0.80;;
4698;SDS011;33708;49.466;11.176;2022-12-31T05:52:17;6.50;;;0.73;;
4698;SDS011;33708;49.466;11.176;2022-12-31T05:54:44;8.10;;;1.00;;
4698;SDS011;33708;49.466;11.176;2022-12-31T05:57:10;8.23;;;0.90;;
4698;SDS011;33708;49.466;11.176;2022-12-31T05:59:36;9.40;;;0.80;;
4698;SDS011;33708;49.466;11.176;2022-12-31T06:02:01;6.83;;;0.90;;
4698;SDS011;33708;49.466;11.176;2022-12-31T06:04:27;8.73;;;1.00;;
4698;SDS011;33708;49.466;11.176;2022-12-31T06:06:53;8.83;;;1.03;;
4698;SDS011;33708;49.466;11.176;2022-12-31T06:09:19;7.43;;;0.83;;
4698;SDS011;33708;49.466;11.176;2022-12-31T06:11:45;10.33;;;1.10;;
4698;SDS011;33708;49.466;11.176;2022-12-31T06:14:11;8.30;;;1.00;;
4698;SDS011;33708;49.466;11.176;2022-12-31T06:16:40;6.40;;;0.70;;
4698;SDS011;33708;49.466;11.176;2022-12-31T06:19:06;7.20;;;0.87;;
4698;SDS011;33708;49.466;11.176;2022-12-31T06:21:33;8.60;;;1.00;;
4698;SDS011;33708;49.466;11.176;2022-12-31T06:23:58;7.17;;;0.80;;
4698;SDS011;33708;49.466;11.176;2022-12-31T06:26:25;6.57;;;0.90;;
4698;SDS011;33708;49.466;11.176;2022-12-31T06:28:51;10.53;;;0.90;;
4698;SDS011;33708;49.466;11.176;2022-12-31T06:31:17;6.57;;;0.80;;
4698;SDS011;33708;49.466;11.176;2022-12-31T06:33:42;6.17;;;0.80;;
4698;SDS011;33708;49.466;11.176;2022-12-31T06:36:11;8.33;;;1.00;;
4698;SDS011;33708;49.466;11.176;2022-12-31T06:38:38;8.13;;;0.93;;
4698;SDS011;33708;49.466;11.176;2022-12-31T06:41:05;6.63;;;0.77;;
4698;SDS011;33708;49.466;11.176;2022-12-31T06:43:35;8.77;;;0.80;;
4698;SDS011;33708;49.466;11.176;2022-12-31T06:46:02;6.40;;;0.80;;
4698;SDS011;33708;49.466;11.176;2022-12-31T06:48:30;7.57;;;0.87;;
4698;SDS011;33708;49.466;11.176;2022-12-31T06:50:56;9.63;;;1.00;;
4698;SDS011;33708;49.466;11.176;2022-12-31T06:53:26;6.40;;;0.80;;
4698;SDS011;33708;49.466;11.176;2022-12-31T06:55:52;6.60;;;0.80;;
4698;SDS011;33708;49.466;11.176;2022-12-31T06:58:18;8.40;;;0.87;;
4698;SDS011;33708;49.466;11.176;2022-12-31T07:00:49;9.37;;;0.90;;
4698;SDS011;33708;49.466;11.176;2022-12-31T07:03:29;7.20;;;1.10;;
4698;SDS011;33708;49.466;11.176;2022-12-31T07:06:25;7.20;;;0.90;;
4698;SDS011;33708;49.466;11.176;2022-12-31T07:09:06;6.50;;;0.83;;
4698;SDS011;33708;49.466;11.176;2022-12-31T07:11:43;7.80;;;1.00;;
4698;SDS011;33708;49.466;11.176;2022-12-31T07:14:22;7.00;;;0.93;;
4698;SDS011;33708;49.466;11.176;2022-12-31T07:20:15;6.87;;;1.00;;
4698;SDS011;33708;49.466;11.176;2022-12-31T07:22:42;6.50;;;1.00;;
4698;SDS011;33708;49.466;11.176;2022-12-31T07:25:13;6.70;;;0.90;;
4698;SDS011;33708;49.466;11.176;2022-12-31T07:37:54;11.43;;;1.00;;
4698;SDS011;33708;49.466;11.176;2022-12-31T07:43:32;10.03;;;1.10;;
4698;SDS011;33708;49.466;11.176;2022-12-31T07:46:08;10.03;;;1.00;;
4698;SDS011;33708;49.466;11.176;2022-12-31T07:48:51;7.83;;;1.00;;
4698;SDS011;33708;49.466;11.176;2022-12-31T07:51:16;8.67;;;1.00;;
4698;SDS011;33708;49.466;11.176;2022-12-31T07:53:42;7.50;;;1.27;;
4698;SDS011;33708;49.466;11.176;2022-12-31T07:56:08;10.80;;;1.20;;
4698;SDS011;33708;49.466;11.176;2022-12-31T07:58:56;6.50;;;0.80;;
4698;SDS011;33708;49.466;11.176;2022-12-31T08:01:34;6.53;;;0.83;;
4698;SDS011;33708;49.466;11.176;2022-12-31T08:04:20;6.40;;;0.80;;
4698;SDS011;33708;49.466;11.176;2022-12-31T08:07:10;7.00;;;1.03;;
4698;SDS011;33708;49.466;11.176;2022-12-31T08:09:53;6.93;;;0.90;;
4698;SDS011;33708;49.466;11.176;2022-12-31T08:12:33;7.27;;;1.10;;
4698;SDS011;33708;49.466;11.176;2022-12-31T08:15:01;10.80;;;1.10;;
4698;SDS011;33708;49.466;11.176;2022-12-31T08:17:27;6.53;;;0.77;;
4698;SDS011;33708;49.466;11.176;2022-12-31T08:19:53;6.50;;;0.77;;
4698;SDS011;33708;49.466;11.176;2022-12-31T08:25:13;6.90;;;0.80;;
4698;SDS011;33708;49.466;11.176;2022-12-31T08:27:49;9.87;;;1.00;;
4698;SDS011;33708;49.466;11.176;2022-12-31T08:33:14;8.90;;;1.00;;
4698;SDS011;33708;49.466;11.176;2022-12-31T08:44:45;6.87;;;0.93;;
4698;SDS011;33708;49.466;11.176;2022-12-31T08:49:32;8.10;;;1.13;;
4698;SDS011;33708;49.466;11.176;2022-12-31T08:51:59;10.20;;;1.20;;
4698;SDS011;33708;49.466;11.176;2022-12-31T08:54:25;8.97;;;1.07;;
4698;SDS011;33708;49.466;11.176;2022-12-31T08:59:46;6.60;;;0.80;;
4698;SDS011;33708;49.466;11.176;2022-12-31T09:15:43;6.90;;;0.80;;
4698;SDS011;33708;49.466;11.176;2022-12-31T09:18:23;7.60;;;1.20;;
4698;SDS011;33708;49.466;11.176;2022-12-31T09:20:49;7.47;;;0.80;;
4698;SDS011;33708;49.466;11.176;2022-12-31T09:23:15;7.50;;;1.07;;
4698;SDS011;33708;49.466;11.176;2022-12-31T09:25:45;6.90;;;0.90;;
4698;SDS011;33708;49.466;11.176;2022-12-31T09:28:36;7.20;;;0.90;;
4698;SDS011;33708;49.466;11.176;2022-12-31T09:31:11;6.60;;;0.90;;
4698;SDS011;33708;49.466;11.176;2022-12-31T09:33:46;7.00;;;0.90;;
4698;SDS011;33708;49.466;11.176;2022-12-31T09:36:28;7.87;;;1.10;;
4698;SDS011;33708;49.466;11.176;2022-12-31T09:41:59;10.27;;;1.07;;
4698;SDS011;33708;49.466;11.176;2022-12-31T09:45:03;6.60;;;0.63;;
4698;SDS011;33708;49.466;11.176;2022-12-31T09:53:34;6.50;;;0.70;;
4698;SDS011;33708;49.466;11.176;2022-12-31T09:56:13;7.90;;;0.80;;
4698;SDS011;33708;49.466;11.176;2022-12-31T09:59:02;7.27;;;0.87;;
4698;SDS011;33708;49.466;11.176;2022-12-31T10:04:56;9.43;;;0.90;;
4698;SDS011;33708;49.466;11.176;2022-12-31T10:07:45;6.43;;;0.90;;
4698;SDS011;33708;49.466;11.176;2022-12-31T10:10:48;6.07;;;0.50;;
4698;SDS011;33708;49.466;11.176;2022-12-31T10:16:54;8.30;;;1.10;;
4698;SDS011;33708;49.466;11.176;2022-12-31T10:19:40;7.30;;;0.80;;
4698;SDS011;33708;49.466;11.176;2022-12-31T10:22:41;6.77;;;0.83;;
4698;SDS011;33708;49.466;11.176;2022-12-31T10:28:13;6.50;;;0.80;;
4698;SDS011;33708;49.466;11.176;2022-12-31T10:36:31;7.60;;;0.60;;
4698;SDS011;33708;49.466;11.176;2022-12-31T10:39:31;7.20;;;1.10;;
4698;SDS011;33708;49.466;11.176;2022-12-31T10:42:04;6.70;;;1.07;;
4698;SDS011;33708;49.466;11.176;2022-12-31T10:44:44;7.50;;;1.20;;
4698;SDS011;33708;49.466;11.176;2022-12-31T11:01:41;9.33;;;2.33;;
4698;SDS011;33708;49.466;11.176;2022-12-31T11:15:29;11.23;;;1.00;;
4698;SDS011;33708;49.466;11.176;2022-12-31T11:21:11;6.70;;;1.00;;
4698;SDS011;33708;49.466;11.176;2022-12-31T11:29:13;8.60;;;0.80;;
4698;SDS011;33708;49.466;11.176;2022-12-31T11:31:52;7.57;;;0.93;;
4698;SDS011;33708;49.466;11.176;2022-12-31T11:34:50;7.13;;;1.10;;
4698;SDS011;33708;49.466;11.176;2022-12-31T11:37:44;7.83;;;1.00;;
4698;SDS011;33708;49.466;11.176;2022-12-31T11:45:35;7.30;;;0.80;;
4698;SDS011;33708;49.466;11.176;2022-12-31T11:48:27;6.73;;;0.90;;
4698;SDS011;33708;49.466;11.176;2022-12-31T11:51:14;11.87;;;1.10;;
4698;SDS011;33708;49.466;11.176;2022-12-31T11:56:40;7.07;;;1.33;;
4698;SDS011;33708;49.466;11.176;2022-12-31T11:59:11;6.90;;;1.10;;
4698;SDS011;33708;49.466;11.176;2022-12-31T12:01:43;8.40;;;1.20;;
4698;SDS011;33708;49.466;11.176;2022-12-31T12:04:15;7.23;;;1.40;;
4698;SDS011;33708;49.466;11.176;2022-12-31T12:06:41;8.43;;;1.80;;
4698;SDS011;33708;49.466;11.176;2022-12-31T12:09:11;8.83;;;1.30;;
4698;SDS011;33708;49.466;11.176;2022-12-31T12:11:41;8.57;;;1.30;;
4698;SDS011;33708;49.466;11.176;2022-12-31T12:14:20;6.97;;;0.93;;
4698;SDS011;33708;49.466;11.176;2022-12-31T12:16:53;8.20;;;0.93;;
4698;SDS011;33708;49.466;11.176;2022-12-31T12:19:20;7.10;;;0.90;;
4698;SDS011;33708;49.466;11.176;2022-12-31T12:21:50;15.00;;;1.00;;
4698;SDS011;33708;49.466;11.176;2022-12-31T12:24:27;8.47;;;1.17;;
4698;SDS011;33708;49.466;11.176;2022-12-31T12:26:54;8.87;;;1.00;;
4698;SDS011;33708;49.466;11.176;2022-12-31T12:29:22;9.23;;;1.10;;
4698;SDS011;33708;49.466;11.176;2022-12-31T12:34:32;8.63;;;0.90;;
4698;SDS011;33708;49.466;11.176;2022-12-31T12:36:59;7.30;;;1.00;;
4698;SDS011;33708;49.466;11.176;2022-12-31T12:39:26;6.80;;;0.90;;
4698;SDS011;33708;49.466;11.176;2022-12-31T12:44:30;8.20;;;1.27;;
4698;SDS011;33708;49.466;11.176;2022-12-31T12:46:57;6.90;;;1.03;;
4698;SDS011;33708;49.466;11.176;2022-12-31T12:52:15;6.97;;;1.03;;
4698;SDS011;33708;49.466;11.176;2022-12-31T12:55:08;7.27;;;1.17;;
4698;SDS011;33708;49.466;11.176;2022-12-31T13:00:22;8.60;;;0.90;;
4698;SDS011;33708;49.466;11.176;2022-12-31T13:03:00;6.60;;;0.97;;
4698;SDS011;33708;49.466;11.176;2022-12-31T13:13:38;8.07;;;1.40;;
4698;SDS011;33708;49.466;11.176;2022-12-31T13:19:38;6.73;;;1.10;;
4698;SDS011;33708;49.466;11.176;2022-12-31T13:24:59;7.00;;;1.07;;
4698;SDS011;33708;49.466;11.176;2022-12-31T13:27:34;8.60;;;0.93;;
4698;SDS011;33708;49.466;11.176;2022-12-31T13:30:05;7.60;;;0.97;;
4698;SDS011;33708;49.466;11.176;2022-12-31T13:32:40;7.50;;;1.10;;
4698;SDS011;33708;49.466;11.176;2022-12-31T13:35:25;7.13;;;1.10;;
4698;SDS011;33708;49.466;11.176;2022-12-31T13:38:02;18.13;;;1.37;;
4698;SDS011;33708;49.466;11.176;2022-12-31T13:41:04;7.10;;;1.20;;
4698;SDS011;33708;49.466;11.176;2022-12-31T13:46:02;6.90;;;1.10;;
4698;SDS011;33708;49.466;11.176;2022-12-31T13:48:47;6.93;;;0.90;;
4698;SDS011;33708;49.466;11.176;2022-12-31T13:57:00;7.17;;;1.10;;
4698;SDS011;33708;49.466;11.176;2022-12-31T13:59:44;7.87;;;1.17;;
4698;SDS011;33708;49.466;11.176;2022-12-31T14:05:17;11.17;;;1.20;;
4698;SDS011;33708;49.466;11.176;2022-12-31T14:07:58;8.10;;;1.20;;
4698;SDS011;33708;49.466;11.176;2022-12-31T14:10:29;9.03;;;1.23;;
4698;SDS011;33708;49.466;11.176;2022-12-31T14:13:11;9.83;;;1.53;;
4698;SDS011;33708;49.466;11.176;2022-12-31T14:16:39;8.10;;;1.10;;
4698;SDS011;33708;49.466;11.176;2022-12-31T14:29:56;8.40;;;1.27;;
4698;SDS011;33708;49.466;11.176;2022-12-31T14:38:32;7.93;;;1.30;;
4698;SDS011;33708;49.466;11.176;2022-12-31T14:44:07;6.60;;;0.90;;
4698;SDS011;33708;49.466;11.176;2022-12-31T14:46:58;7.30;;;1.40;;
4698;SDS011;33708;49.466;11.176;2022-12-31T14:49:37;7.00;;;1.37;;
4698;SDS011;33708;49.466;11.176;2022-12-31T14:54:39;8.50;;;1.33;;
4698;SDS011;33708;49.466;11.176;2022-12-31T14:57:09;9.43;;;1.83;;
4698;SDS011;33708;49.466;11.176;2022-12-31T15:02:49;8.10;;;1.60;;
4698;SDS011;33708;49.466;11.176;2022-12-31T15:13:45;7.77;;;1.43;;
4698;SDS011;33708;49.466;11.176;2022-12-31T15:24:32;9.10;;;1.30;;
4698;SDS011;33708;49.466;11.176;2022-12-31T15:27:16;7.70;;;1.60;;
4698;SDS011;33708;49.466;11.176;2022-12-31T15:29:55;8.03;;;1.40;;
4698;SDS011;33708;49.466;11.176;2022-12-31T15:32:30;9.63;;;1.50;;
4698;SDS011;33708;49.466;11.176;2022-12-31T15:35:03;8.03;;;1.50;;
4698;SDS011;33708;49.466;11.176;2022-12-31T15:37:45;8.40;;;1.30;;
4698;SDS011;33708;49.466;11.176;2022-12-31T15:40:26;9.30;;;1.50;;
4698;SDS011;33708;49.466;11.176;2022-12-31T15:45:23;7.80;;;1.37;;
4698;SDS011;33708;49.466;11.176;2022-12-31T15:47:56;9.80;;;2.30;;
4698;SDS011;33708;49.466;11.176;2022-12-31T15:50:23;7.80;;;1.27;;
4698;SDS011;33708;49.466;11.176;2022-12-31T15:52:54;7.83;;;1.60;;
4698;SDS011;33708;49.466;11.176;2022-12-31T15:57:47;7.77;;;1.30;;
4698;SDS011;33708;49.466;11.176;2022-12-31T16:00:20;7.47;;;1.40;;
4698;SDS011;33708;49.466;11.176;2022-12-31T16:02:49;7.60;;;1.73;;
4698;SDS011;33708;49.466;11.176;2022-12-31T16:05:18;9.73;;;1.70;;
4698;SDS011;33708;49.466;11.176;2022-12-31T16:07:55;7.17;;;1.43;;
4698;SDS011;33708;49.466;11.176;2022-12-31T16:10:24;8.00;;;2.00;;
4698;SDS011;33708;49.466;11.176;2022-12-31T16:12:52;8.43;;;1.67;;
4698;SDS011;33708;49.466;11.176;2022-12-31T16:15:21;8.13;;;1.50;;
4698;SDS011;33708;49.466;11.176;2022-12-31T16:18:07;7.40;;;1.67;;
4698;SDS011;33708;49.466;11.176;2022-12-31T16:20:42;18.13;;;8.33;;
4698;SDS011;33708;49.466;11.176;2022-12-31T16:25:44;9.13;;;2.27;;
4698;SDS011;33708;49.466;11.176;2022-12-31T16:28:21;10.33;;;2.70;;
4698;SDS011;33708;49.466;11.176;2022-12-31T16:30:56;9.10;;;3.10;;
4698;SDS011;33708;49.466;11.176;2022-12-31T16:33:27;12.67;;;5.60;;
4698;SDS011;33708;49.466;11.176;2022-12-31T16:35:55;11.53;;;4.23;;
4698;SDS011;33708;49.466;11.176;2022-12-31T16:38:22;8.20;;;2.27;;
4698;SDS011;33708;49.466;11.176;2022-12-31T16:43:28;9.33;;;2.13;;
4698;SDS011;33708;49.466;11.176;2022-12-31T16:46:10;14.33;;;4.87;;
4698;SDS011;33708;49.466;11.176;2022-12-31T16:48:40;12.90;;;5.50;;
4698;SDS011;33708;49.466;11.176;2022-12-31T16:51:12;17.50;;;7.80;;
4698;SDS011;33708;49.466;11.176;2022-12-31T16:53:42;20.03;;;7.63;;
4698;SDS011;33708;49.466;11.176;2022-12-31T16:56:08;10.47;;;4.37;;
4698;SDS011;33708;49.466;11.176;2022-12-31T16:58:40;8.70;;;2.33;;
4698;SDS011;33708;49.466;11.176;2022-12-31T17:01:16;14.60;;;2.80;;
4698;SDS011;33708;49.466;11.176;2022-12-31T17:03:46;8.90;;;2.07;;
4698;SDS011;33708;49.466;11.176;2022-12-31T17:06:17;14.30;;;4.47;;
4698;SDS011;33708;49.466;11.176;2022-12-31T17:08:46;25.67;;;9.03;;
4698;SDS011;33708;49.466;11.176;2022-12-31T17:16:32;11.83;;;2.80;;
4698;SDS011;33708;49.466;11.176;2022-12-31T17:19:04;9.70;;;2.77;;
4698;SDS011;33708;49.466;11.176;2022-12-31T17:21:30;9.50;;;2.97;;
4698;SDS011;33708;49.466;11.176;2022-12-31T17:23:59;10.77;;;2.63;;
4698;SDS011;33708;49.466;11.176;2022-12-31T17:26:34;12.97;;;2.60;;
4698;SDS011;33708;49.466;11.176;2022-12-31T17:29:02;9.80;;;2.40;;
4698;SDS011;33708;49.466;11.176;2022-12-31T17:31:34;8.20;;;2.17;;
4698;SDS011;33708;49.466;11.176;2022-12-31T17:34:20;7.80;;;2.00;;
4698;SDS011;33708;49.466;11.176;2022-12-31T17:37:00;9.67;;;3.03;;
4698;SDS011;33708;49.466;11.176;2022-12-31T17:39:42;8.67;;;2.20;;
4698;SDS011;33708;49.466;11.176;2022-12-31T17:45:01;10.00;;;1.90;;
4698;SDS011;33708;49.466;11.176;2022-12-31T17:47:36;14.90;;;2.40;;
4698;SDS011;33708;49.466;11.176;2022-12-31T17:50:05;8.90;;;2.63;;
4698;SDS011;33708;49.466;11.176;2022-12-31T17:52:42;9.60;;;2.80;;
4698;SDS011;33708;49.466;11.176;2022-12-31T17:55:07;11.07;;;2.70;;
4698;SDS011;33708;49.466;11.176;2022-12-31T17:57:33;8.23;;;2.27;;
4698;SDS011;33708;49.466;11.176;2022-12-31T18:00:02;8.13;;;2.33;;
4698;SDS011;33708;49.466;11.176;2022-12-31T18:02:29;11.00;;;2.47;;
4698;SDS011;33708;49.466;11.176;2022-12-31T18:04:55;9.90;;;2.47;;
4698;SDS011;33708;49.466;11.176;2022-12-31T18:07:21;9.50;;;2.30;;
4698;SDS011;33708;49.466;11.176;2022-12-31T18:09:46;10.30;;;3.07;;
4698;SDS011;33708;49.466;11.176;2022-12-31T18:12:13;10.97;;;3.07;;
4698;SDS011;33708;49.466;11.176;2022-12-31T18:14:40;9.50;;;3.07;;
4698;SDS011;33708;49.466;11.176;2022-12-31T18:17:12;9.60;;;2.77;;
4698;SDS011;33708;49.466;11.176;2022-12-31T18:19:40;8.83;;;2.87;;
4698;SDS011;33708;49.466;11.176;2022-12-31T18:22:07;9.53;;;3.37;;
4698;SDS011;33708;49.466;11.176;2022-12-31T18:24:37;15.30;;;6.77;;
4698;SDS011;33708;49.466;11.176;2022-12-31T18:27:04;9.67;;;3.67;;
4698;SDS011;33708;49.466;11.176;2022-12-31T18:29:37;9.20;;;2.43;;
4698;SDS011;33708;49.466;11.176;2022-12-31T18:32:03;8.90;;;2.30;;
4698;SDS011;33708;49.466;11.176;2022-12-31T18:34:29;9.40;;;3.00;;
4698;SDS011;33708;49.466;11.176;2022-12-31T18:36:54;11.90;;;3.03;;
4698;SDS011;33708;49.466;11.176;2022-12-31T18:39:20;9.30;;;2.30;;
4698;SDS011;33708;49.466;11.176;2022-12-31T18:41:46;10.53;;;2.80;;
4698;SDS011;33708;49.466;11.176;2022-12-31T18:44:13;9.80;;;2.50;;
4698;SDS011;33708;49.466;11.176;2022-12-31T18:46:40;8.77;;;2.47;;
4698;SDS011;33708;49.466;11.176;2022-12-31T18:49:06;8.83;;;2.60;;
4698;SDS011;33708;49.466;11.176;2022-12-31T18:51:32;9.70;;;2.20;;
4698;SDS011;33708;49.466;11.176;2022-12-31T18:53:59;9.10;;;2.57;;
4698;SDS011;33708;49.466;11.176;2022-12-31T18:56:25;8.70;;;2.27;;
4698;SDS011;33708;49.466;11.176;2022-12-31T18:58:52;8.70;;;2.47;;
4698;SDS011;33708;49.466;11.176;2022-12-31T19:01:33;8.50;;;2.33;;
4698;SDS011;33708;49.466;11.176;2022-12-31T19:04:02;7.80;;;1.90;;
4698;SDS011;33708;49.466;11.176;2022-12-31T19:06:35;9.47;;;2.00;;
4698;SDS011;33708;49.466;11.176;2022-12-31T19:09:00;8.37;;;1.83;;
4698;SDS011;33708;49.466;11.176;2022-12-31T19:11:26;10.53;;;1.73;;